Time;durP1;ratioP1;P1;durP2;ratioP2;P2;SDS_P1;SDS_P2;PMS_P1;PMS_P2;Temp;Humidity;BMP_temperature;BMP_pressure;BME280_temperature;BME280_humidity;BME280_pressure;Samples;Min_cycle;Max_cycle;Signal;HPM_P1;HPM_P2
2021/12/15 00:01:48;;;;;;;;;41.67;35.00;;;;;10.52;100.00;102734.19;5094200;27;45757;-67
2021/12/15 00:04:15;;;;;;;;;45.67;34.33;;;;;10.49;100.00;102729.75;5094310;27;45778;-67
2021/12/15 00:06:40;;;;;;;;;37.33;31.33;;;;;10.52;100.00;102731.53;5094344;27;45371;-68
2021/12/15 00:09:12;;;;;;;;;41.67;34.67;;;;;10.51;100.00;102738.53;5093253;27;45881;-67
2021/12/15 00:11:38;;;;;;;;;37.67;33.67;;;;;10.51;100.00;102737.66;5094354;27;46387;-67
2021/12/15 00:14:06;;;;;;;;;41.33;32.00;;;;;10.43;100.00;102727.94;5094005;27;45422;-67
2021/12/15 00:16:33;;;;;;;;;36.00;32.00;;;;;10.41;100.00;102728.78;5094084;27;45441;-67
2021/12/15 00:18:58;;;;;;;;;46.33;34.67;;;;;10.20;100.00;102693.44;5094268;27;45483;-67
2021/12/15 00:21:24;;;;;;;;;31.67;31.67;;;;;10.37;100.00;102722.63;5083651;27;45704;-67
2021/12/15 00:23:50;;;;;;;;;40.33;33.67;;;;;10.46;100.00;102737.63;5093956;27;45485;-67
2021/12/15 00:26:16;;;;;;;;;38.33;29.00;;;;;10.43;100.00;102732.34;5094009;27;45809;-67
2021/12/15 00:28:43;;;;;;;;;35.33;31.00;;;;;10.24;100.00;102707.53;5091047;27;45518;-67
2021/12/15 00:31:09;;;;;;;;;36.00;30.33;;;;;10.44;100.00;102741.97;5092217;27;46499;-67
2021/12/15 00:33:36;;;;;;;;;37.67;31.67;;;;;10.29;100.00;102717.22;5094014;27;45448;-67
2021/12/15 00:36:03;;;;;;;;;40.33;33.67;;;;;10.47;100.00;102746.41;5094091;27;45917;-67
2021/12/15 00:38:29;;;;;;;;;42.33;31.33;;;;;10.45;100.00;102739.38;5093189;27;45478;-67
2021/12/15 00:40:54;;;;;;;;;39.67;33.00;;;;;10.41;100.00;102736.69;5093425;27;46736;-67
2021/12/15 00:43:20;;;;;;;;;38.67;32.33;;;;;10.45;100.00;102741.13;5093751;27;45875;-67
2021/12/15 00:45:46;;;;;;;;;40.33;31.67;;;;;10.49;100.00;102742.06;5093848;27;45420;-67
2021/12/15 00:48:12;;;;;;;;;42.33;34.00;;;;;10.47;100.00;102739.41;5094015;27;45482;-67
2021/12/15 00:50:38;;;;;;;;;33.67;30.00;;;;;10.27;100.00;102697.03;5092269;27;46731;-67
2021/12/15 00:53:04;;;;;;;;;40.00;32.33;;;;;10.50;100.00;102734.16;5093312;27;45449;-67
2021/12/15 00:55:31;;;;;;;;;42.00;33.67;;;;;10.48;100.00;102730.63;5093863;27;45394;-67
2021/12/15 00:57:57;;;;;;;;;36.00;28.00;;;;;10.45;100.00;102731.47;5093861;27;45622;-67
2021/12/15 01:00:36;;;;;;;;;40.00;32.67;;;;;10.43;100.00;102737.59;5093353;27;46457;-67
2021/12/15 01:03:03;;;;;;;;;45.67;30.67;;;;;10.44;100.00;102736.72;5093954;27;45431;-67
2021/12/15 01:05:34;;;;;;;;;43.33;34.33;;;;;10.47;100.00;102735.88;5097383;27;45457;-67
2021/12/15 01:08:01;;;;;;;;;36.33;31.33;;;;;10.46;100.00;102742.91;5096705;27;45461;-67
2021/12/15 01:10:40;;;;;;;;;40.67;33.67;;;;;10.48;100.00;102735.00;5096980;27;45532;-67
2021/12/15 01:21:12;;;;;;;;;35.00;30.67;;;;;10.42;100.00;102726.16;5115482;27;45487;-67
2021/12/15 01:23:38;;;;;;;;;38.67;32.00;;;;;10.48;100.00;102735.88;5111385;27;45840;-67
2021/12/15 01:26:09;;;;;;;;;34.00;29.00;;;;;10.41;100.00;102727.06;5096767;27;45465;-67
2021/12/15 01:28:34;;;;;;;;;40.00;32.67;;;;;10.43;100.00;102727.94;5096963;27;45536;-67
2021/12/15 01:31:01;;;;;;;;;34.00;30.00;;;;;10.44;100.00;102737.63;5096366;27;45436;-67
2021/12/15 01:33:28;;;;;;;;;38.00;32.67;;;;;10.45;100.00;102739.38;5095609;27;45449;-67
2021/12/15 01:35:56;;;;;;;;;37.33;32.00;;;;;10.38;100.00;102736.66;5076232;27;45427;-67
2021/12/15 01:38:25;;;;;;;;;34.00;31.33;;;;;10.34;100.00;102717.34;5076346;27;45755;-67
2021/12/15 01:40:50;;;;;;;;;35.33;29.00;;;;;10.45;100.00;102744.63;5077455;27;45472;-67
2021/12/15 01:43:18;;;;;;;;;36.00;30.00;;;;;10.48;100.00;102745.56;5096393;27;45617;-67
2021/12/15 01:48:32;;;;;;;;;44.33;31.33;;;;;10.19;100.00;102694.31;5096893;27;45532;-67
2021/12/15 01:50:58;;;;;;;;;39.67;33.00;;;;;10.40;100.00;102724.41;5095890;27;46522;-67
2021/12/15 01:53:24;;;;;;;;;37.33;29.33;;;;;10.45;100.00;102741.13;5096402;27;45400;-67
2021/12/15 01:55:50;;;;;;;;;37.67;28.33;;;;;10.47;100.00;102738.50;5096274;27;45757;-67
2021/12/15 01:58:16;;;;;;;;;33.00;28.33;;;;;10.44;100.00;102739.34;5096561;27;45375;-67
2021/12/15 02:00:50;;;;;;;;;34.33;30.33;;;;;10.42;100.00;102738.47;5096074;27;47594;-67
2021/12/15 02:03:16;;;;;;;;;39.00;29.67;;;;;10.35;100.00;102723.47;5096429;27;45903;-67
2021/12/15 02:05:42;;;;;;;;;43.00;32.33;;;;;10.39;100.00;102741.94;5096388;27;45465;-67
2021/12/15 02:08:08;;;;;;;;;36.33;33.00;;;;;10.42;100.00;102747.25;5096382;27;45541;-67
2021/12/15 02:10:37;;;;;;;;;40.33;32.67;;;;;10.41;100.00;102734.97;5095718;27;46173;-67
2021/12/15 02:13:06;;;;;;;;;37.00;29.00;;;;;10.46;100.00;102745.53;5095645;27;45515;-67
2021/12/15 02:15:36;;;;;;;;;36.67;24.00;;;;;10.48;100.00;102740.28;5093273;27;45422;-65
2021/12/15 02:18:05;;;;;;;;;37.33;30.33;;;;;10.42;100.00;102734.06;5075798;27;45914;-65
2021/12/15 02:20:39;;;;;;;;;35.33;30.67;;;;;10.47;100.00;102747.31;5100939;27;46425;-65
2021/12/15 02:23:07;;;;;;;;;31.67;28.33;;;;;10.45;100.00;102744.63;5116533;27;45450;-65
2021/12/15 02:25:32;;;;;;;;;30.33;25.67;;;;;10.47;100.00;102752.59;5116606;27;45452;-65
2021/12/15 02:27:59;;;;;;;;;43.00;32.67;;;;;10.45;100.00;102751.66;5116657;27;45463;-65
2021/12/15 02:30:42;;;;;;;;;23.00;22.00;;;;;10.45;100.00;102744.63;5094886;27;46405;-65
2021/12/15 02:38:28;;;;;;;;;31.67;30.67;;;;;10.38;100.00;102740.19;5095641;27;45372;-65
2021/12/15 02:40:53;;;;;;;;;34.00;28.67;;;;;10.39;100.00;102744.56;5074918;27;45467;-65
2021/12/15 02:43:19;;;;;;;;;33.33;29.67;;;;;10.37;100.00;102737.53;5075148;28;45418;-66
2021/12/15 02:45:44;;;;;;;;;30.67;25.00;;;;;10.37;100.00;102738.44;5075170;28;45544;-66
2021/12/15 02:48:09;;;;;;;;;35.67;29.67;;;;;10.36;100.00;102741.91;5078985;27;45435;-66
2021/12/15 02:50:37;;;;;;;;;31.33;29.67;;;;;10.28;100.00;102717.22;5095370;27;46167;-65
2021/12/15 02:53:03;;;;;;;;;31.33;30.33;;;;;10.40;100.00;102734.94;5095437;27;45437;-65
2021/12/15 02:55:29;;;;;;;;;39.67;30.67;;;;;10.40;100.00;102732.31;5095545;27;45456;-65
2021/12/15 02:57:55;;;;;;;;;38.00;33.33;;;;;10.42;100.00;102749.88;5095451;27;45442;-66
2021/12/15 03:00:30;;;;;;;;;36.00;28.00;;;;;10.21;100.00;102699.59;5094679;27;46292;-65
2021/12/15 03:05:51;;;;;;;;;27.33;24.00;;;;;10.46;100.00;102737.63;5077811;27;45509;-65
2021/12/15 03:08:46;;;;;;;;;38.67;31.33;;;;;10.40;100.00;102738.44;5095052;27;45438;-66
2021/12/15 03:16:30;;;;;;;;;34.33;25.67;;;;;10.18;100.00;102705.72;5094831;27;45441;-66
2021/12/15 03:18:58;;;;;;;;;30.00;24.67;;;;;10.45;100.00;102743.75;5095357;27;45668;-65
2021/12/15 03:21:26;;;;;;;;;37.67;29.67;;;;;10.46;100.00;102740.28;5094491;27;45525;-66
2021/12/15 03:23:56;;;;;;;;;39.00;30.67;;;;;10.41;100.00;102740.22;5094897;27;45361;-65
2021/12/15 03:26:29;;;;;;;;;32.33;29.33;;;;;10.50;100.00;102752.59;5094178;27;45462;-65
2021/12/15 03:34:41;;;;;;;;;38.33;31.67;;;;;10.46;100.00;102758.69;5094428;27;46646;-65
2021/12/15 03:37:28;;;;;;;;;41.33;31.67;;;;;10.49;100.00;102757.84;5094874;27;45891;-65
2021/12/15 03:40:08;;;;;;;;;31.00;29.33;;;;;10.50;100.00;102765.78;5095018;27;45400;-65
2021/12/15 03:42:42;;;;;;;;;37.33;29.00;;;;;10.38;100.00;102748.09;5094578;27;45932;-65
2021/12/15 03:45:12;;;;;;;;;29.33;27.33;;;;;10.51;100.00;102775.41;5094681;27;45448;-66
2021/12/15 03:47:41;;;;;;;;;25.00;20.33;;;;;10.51;100.00;102774.53;5094106;27;45362;-65
2021/12/15 03:50:10;;;;;;;;;36.67;30.33;;;;;10.51;100.00;102770.16;5093377;27;45618;-65
2021/12/15 03:52:35;;;;;;;;;31.00;28.33;;;;;10.23;100.00;102727.69;5094252;27;46523;-65
2021/12/15 03:55:01;;;;;;;;;29.67;27.00;;;;;10.45;100.00;102763.06;5094401;27;45413;-66
2021/12/15 03:57:27;;;;;;;;;30.67;29.00;;;;;10.47;100.00;102759.56;5094665;27;45962;-65
2021/12/15 03:59:54;;;;;;;;;34.33;28.00;;;;;10.44;100.00;102761.31;5094697;27;45538;-66
2021/12/15 04:02:20;;;;;;;;;32.67;27.33;;;;;10.48;100.00;102763.97;5073617;27;46253;-65
2021/12/15 04:04:48;;;;;;;;;28.67;27.00;;;;;10.47;100.00;102778.91;5074074;27;45413;-66
2021/12/15 04:07:16;;;;;;;;;31.67;28.33;;;;;10.35;100.00;102752.44;5072624;28;45805;-66
2021/12/15 04:09:42;;;;;;;;;33.00;27.00;;;;;10.42;100.00;102773.56;5075041;27;45573;-66
2021/12/15 04:12:09;;;;;;;;;32.00;29.33;;;;;10.43;100.00;102775.34;5094281;27;45940;-66
2021/12/15 04:14:43;;;;;;;;;35.67;30.67;;;;;10.37;100.00;102766.50;5094194;27;45447;-66
2021/12/15 04:17:26;;;;;;;;;26.67;26.33;;;;;10.35;100.00;102766.47;5094112;27;45513;-66
2021/12/15 04:19:56;;;;;;;;;29.33;25.67;;;;;10.45;100.00;102783.25;5101799;27;45454;-66
2021/12/15 04:22:22;;;;;;;;;24.00;23.33;;;;;10.44;100.00;102785.03;5114529;27;45487;-66
2021/12/15 04:24:49;;;;;;;;;31.33;29.00;;;;;10.47;100.00;102792.09;5110112;27;45486;-66
2021/12/15 04:27:14;;;;;;;;;28.33;26.33;;;;;10.40;100.00;102780.59;5094228;27;45533;-65
2021/12/15 04:29:40;;;;;;;;;34.00;29.33;;;;;10.39;100.00;102778.81;5094288;27;45489;-66
2021/12/15 04:32:31;;;;;;;;;33.00;26.67;;;;;10.44;100.00;102787.66;5093588;27;46080;-66
2021/12/15 04:34:57;;;;;;;;;35.33;28.33;;;;;10.43;100.00;102785.88;5093697;27;45478;-66
2021/12/15 04:37:23;;;;;;;;;34.33;24.33;;;;;10.40;100.00;102784.97;5095319;27;45623;-66
2021/12/15 04:39:48;;;;;;;;;31.00;29.00;;;;;10.33;100.00;102783.13;5097616;27;45505;-66
2021/12/15 04:42:18;;;;;;;;;37.67;29.33;;;;;10.37;100.00;102785.81;5097237;27;46594;-66
2021/12/15 04:44:43;;;;;;;;;31.67;25.67;;;;;10.38;100.00;102794.59;5079330;27;45468;-66
2021/12/15 04:47:11;;;;;;;;;29.00;24.67;;;;;10.30;100.00;102770.78;5097152;27;45304;-66
2021/12/15 04:49:44;;;;;;;;;31.67;24.67;;;;;10.30;100.00;102781.31;5097462;27;45390;-66
2021/12/15 04:52:12;;;;;;;;;30.33;27.00;;;;;10.32;100.00;102790.09;5097348;27;45434;-66
2021/12/15 04:54:39;;;;;;;;;27.33;25.00;;;;;10.28;100.00;102785.66;5097092;27;45440;-66
2021/12/15 04:57:06;;;;;;;;;25.00;24.00;;;;;10.21;100.00;102781.19;5097718;27;45878;-66
2021/12/15 04:59:33;;;;;;;;;29.00;25.67;;;;;10.16;100.00;102767.13;5097586;27;45483;-66
2021/12/15 05:01:59;;;;;;;;;25.67;25.33;;;;;10.25;100.00;102793.53;5096628;27;46234;-66
2021/12/15 05:04:25;;;;;;;;;35.33;29.00;;;;;10.30;100.00;102789.22;5096968;27;45469;-66
2021/12/15 05:06:51;;;;;;;;;28.00;25.00;;;;;10.27;100.00;102789.19;5097194;27;45497;-66
2021/12/15 05:09:17;;;;;;;;;28.33;25.00;;;;;10.21;100.00;102779.47;5097813;27;45993;-65
2021/12/15 05:11:42;;;;;;;;;31.67;27.00;;;;;10.23;100.00;102771.59;5096992;27;46060;-66
2021/12/15 05:14:08;;;;;;;;;27.67;24.33;;;;;10.24;100.00;102773.38;5096866;27;45472;-65
2021/12/15 05:16:34;;;;;;;;;32.33;28.33;;;;;10.29;100.00;102785.69;5097059;27;45524;-66
2021/12/15 05:18:59;;;;;;;;;33.33;30.00;;;;;10.29;100.00;102785.69;5096741;27;45747;-65
2021/12/15 05:21:26;;;;;;;;;25.67;21.00;;;;;10.27;100.00;102776.91;5117308;27;45461;-65
2021/12/15 05:23:59;;;;;;;;;33.67;26.67;;;;;10.25;100.00;102788.28;5117266;27;45771;-66
2021/12/15 05:26:25;;;;;;;;;37.33;32.67;;;;;10.25;100.00;102780.38;5117268;27;45461;-66
2021/12/15 05:28:51;;;;;;;;;31.00;27.00;;;;;10.26;100.00;102785.66;5098540;27;45420;-65
2021/12/15 05:31:17;;;;;;;;;30.67;27.67;;;;;10.27;100.00;102786.56;5096623;27;45468;-65
2021/12/15 05:33:42;;;;;;;;;30.33;27.00;;;;;10.25;100.00;102789.19;5096443;27;45856;-65
2021/12/15 05:36:07;;;;;;;;;37.33;29.00;;;;;10.24;100.00;102778.63;5096819;27;45398;-66
2021/12/15 05:38:33;;;;;;;;;30.33;26.67;;;;;10.25;100.00;102780.38;5096741;27;45451;-66
2021/12/15 05:40:59;;;;;;;;;27.33;25.33;;;;;10.24;100.00;102774.22;5096600;27;45893;-66
2021/12/15 05:43:25;;;;;;;;;32.00;28.67;;;;;10.29;100.00;102798.84;5096456;27;45498;-66
2021/12/15 05:45:51;;;;;;;;;33.33;28.33;;;;;10.21;100.00;102775.94;5096667;27;45441;-66
2021/12/15 05:48:18;;;;;;;;;33.00;27.67;;;;;10.27;100.00;102800.59;5096201;27;45507;-66
2021/12/15 05:50:45;;;;;;;;;30.00;28.00;;;;;10.31;100.00;102800.63;5095922;27;45598;-66
2021/12/15 05:53:11;;;;;;;;;30.33;28.33;;;;;10.33;100.00;102802.41;5096381;27;45850;-66
2021/12/15 05:55:38;;;;;;;;;25.00;19.67;;;;;10.24;100.00;102791.78;5096409;27;45453;-66
2021/12/15 05:58:04;;;;;;;;;33.67;31.00;;;;;10.27;100.00;102791.81;5096695;27;45748;-66
2021/12/15 06:00:34;;;;;;;;;40.33;31.33;;;;;10.33;100.00;102810.31;5095833;27;46363;-66
2021/12/15 06:03:00;;;;;;;;;37.00;28.67;;;;;10.36;100.00;102818.28;5095903;27;45419;-66
2021/12/15 06:05:26;;;;;;;;;31.33;27.33;;;;;10.34;100.00;102814.75;5096152;27;45399;-66
2021/12/15 06:07:52;;;;;;;;;34.00;30.33;;;;;10.32;100.00;102819.06;5096366;27;45404;-65
2021/12/15 06:10:22;;;;;;;;;36.00;31.33;;;;;10.33;100.00;102815.59;5095557;27;46555;-66
2021/12/15 06:12:50;;;;;;;;;33.67;29.00;;;;;10.31;100.00;102819.97;5096011;27;45468;-65
2021/12/15 06:15:21;;;;;;;;;43.00;33.33;;;;;10.30;100.00;102812.91;5096342;27;45812;-66
2021/12/15 06:17:49;;;;;;;;;42.67;35.33;;;;;10.29;100.00;102822.53;5096216;27;45506;-66
2021/12/15 06:20:15;;;;;;;;;30.00;28.00;;;;;10.25;100.00;102820.78;5105972;27;45543;-66
2021/12/15 06:22:41;;;;;;;;;30.00;26.00;;;;;10.19;100.00;102811.91;5116298;27;45579;-66
2021/12/15 06:25:07;;;;;;;;;35.00;30.00;;;;;10.27;100.00;102828.69;5116257;27;45484;-68
2021/12/15 06:27:35;;;;;;;;;37.67;29.67;;;;;10.23;100.00;102811.94;5116654;27;45499;-68
2021/12/15 06:30:01;;;;;;;;;30.67;23.00;;;;;10.30;100.00;102828.72;5116020;27;47593;-68
2021/12/15 06:32:27;;;;;;;;;30.33;28.33;;;;;10.33;100.00;102830.50;5094887;27;45528;-68
2021/12/15 06:34:52;;;;;;;;;45.33;33.00;;;;;10.26;100.00;102817.25;5095705;27;46013;-68
2021/12/15 06:37:18;;;;;;;;;38.67;31.67;;;;;10.35;100.00;102834.06;5095901;27;45525;-68
2021/12/15 06:39:43;;;;;;;;;35.33;30.33;;;;;10.31;100.00;102814.69;5095459;27;45573;-70
2021/12/15 06:42:09;;;;;;;;;36.00;31.33;;;;;10.37;100.00;102825.31;5095059;27;45494;-69
2021/12/15 06:44:35;;;;;;;;;34.33;32.00;;;;;10.36;100.00;102825.31;5095533;27;45555;-70
2021/12/15 07:00:27;;;;;;;;;33.00;29.00;;;;;10.38;100.00;102839.38;5093975;27;45753;-70
2021/12/15 07:02:53;;;;;;;;;40.67;34.33;;;;;10.41;100.00;102852.56;5094907;27;45749;-69
2021/12/15 07:05:19;;;;;;;;;29.00;27.33;;;;;10.42;100.00;102852.59;5095128;27;45997;-68
2021/12/15 07:07:47;;;;;;;;;39.33;32.33;;;;;10.43;100.00;102854.34;5095551;27;45460;-69
2021/12/15 07:10:15;;;;;;;;;29.33;26.67;;;;;10.40;100.00;102850.81;5094892;27;45680;-69
2021/12/15 07:12:40;;;;;;;;;40.33;33.00;;;;;10.35;100.00;102853.38;5094959;27;45427;-69
2021/12/15 07:15:08;;;;;;;;;39.00;32.00;;;;;10.34;100.00;102856.91;5095121;27;45545;-69
2021/12/15 07:17:36;;;;;;;;;37.00;30.00;;;;;10.32;100.00;102860.34;5095131;27;45450;-71
2021/12/15 07:22:35;;;;;;;;;39.00;32.33;;;;;10.25;100.00;102855.00;5115275;27;45572;-69
2021/12/15 07:25:03;;;;;;;;;32.67;26.67;;;;;10.29;100.00;102866.44;5115434;27;45529;-69
2021/12/15 07:27:28;;;;;;;;;29.00;26.00;;;;;10.10;100.00;102834.59;5115742;27;45417;-69
2021/12/15 07:29:54;;;;;;;;;35.00;28.67;;;;;10.26;100.00;102864.63;5104678;27;46181;-69
2021/12/15 07:32:19;;;;;;;;;42.67;32.33;;;;;10.27;100.00;102869.06;5093700;27;45920;-68
2021/12/15 07:34:44;;;;;;;;;42.00;32.33;;;;;10.19;100.00;102861.91;5095275;27;45855;-69
2021/12/15 07:37:10;;;;;;;;;38.00;35.00;;;;;10.31;100.00;102880.53;5105961;27;45359;-69
2021/12/15 07:39:37;;;;;;;;;41.33;32.67;;;;;10.24;100.00;102870.78;5119244;27;46137;-69
2021/12/15 07:42:09;;;;;;;;;46.67;35.67;;;;;10.32;100.00;102890.16;5104595;27;45595;-69
2021/12/15 07:44:36;;;;;;;;;41.00;34.00;;;;;10.37;100.00;102893.78;5098489;27;45806;-69
2021/12/15 07:47:02;;;;;;;;;33.33;28.00;;;;;10.38;100.00;102890.31;5098656;27;45384;-72
2021/12/15 07:49:28;;;;;;;;;32.00;24.33;;;;;10.38;100.00;102897.31;5098121;27;45312;-69
2021/12/15 07:52:03;;;;;;;;;36.67;30.00;;;;;10.13;100.00;102859.22;5098279;27;45306;-69
2021/12/15 07:54:34;;;;;;;;;36.00;31.33;;;;;10.39;100.00;102907.84;5114863;27;45418;-69
2021/12/15 07:57:03;;;;;;;;;36.33;29.33;;;;;10.35;100.00;102905.16;5118722;27;45453;-68
2021/12/15 07:59:28;;;;;;;;;29.33;29.33;;;;;10.40;100.00;102906.13;5117389;27;46421;-68
2021/12/15 08:01:54;;;;;;;;;35.67;31.00;;;;;10.34;100.00;102906.94;5118793;27;45371;-68
2021/12/15 08:04:19;;;;;;;;;37.00;29.67;;;;;10.33;100.00;102913.00;5118851;27;45440;-69
2021/12/15 08:06:46;;;;;;;;;30.67;29.67;;;;;10.39;100.00;102920.16;5119210;27;45351;-68
2021/12/15 08:09:12;;;;;;;;;39.67;31.33;;;;;10.41;100.00;102919.31;5097155;27;45729;-68
2021/12/15 08:11:38;;;;;;;;;33.00;29.00;;;;;10.44;100.00;102927.25;5093221;27;45796;-68
2021/12/15 08:14:04;;;;;;;;;38.33;32.67;;;;;10.40;100.00;102921.94;5093936;27;45589;-68
2021/12/15 08:16:30;;;;;;;;;39.33;31.33;;;;;10.44;100.00;102919.34;5105978;27;45429;-68
2021/12/15 08:18:56;;;;;;;;;38.33;30.67;;;;;10.34;100.00;102906.03;5114430;27;46289;-68
2021/12/15 08:21:21;;;;;;;;;47.00;38.33;;;;;10.51;100.00;102933.47;5106777;27;46045;-68
2021/12/15 08:23:47;;;;;;;;;29.33;26.33;;;;;10.51;100.00;102935.22;5093963;27;45407;-68
2021/12/15 08:26:12;;;;;;;;;43.33;33.67;;;;;10.53;100.00;102931.75;5094255;27;45375;-68
2021/12/15 08:28:38;;;;;;;;;35.33;32.00;;;;;10.54;100.00;102940.53;5093702;27;46123;-68
2021/12/15 08:31:05;;;;;;;;;28.00;26.67;;;;;10.59;100.00;102952.88;5109167;27;45416;-68
2021/12/15 08:33:33;;;;;;;;;34.67;24.33;;;;;10.62;100.00;102946.78;5114359;27;45403;-69
2021/12/15 08:36:03;;;;;;;;;40.33;33.67;;;;;10.53;100.00;102930.84;5114504;27;45568;-69
2021/12/15 08:38:32;;;;;;;;;33.00;31.00;;;;;10.52;100.00;102931.72;5114392;27;46259;-68
2021/12/15 08:40:59;;;;;;;;;35.67;28.67;;;;;10.57;100.00;102938.84;5114345;27;45924;-68
2021/12/15 08:43:25;;;;;;;;;34.00;29.33;;;;;10.45;100.00;102917.59;5114342;27;45445;-68
2021/12/15 08:45:58;;;;;;;;;27.67;26.00;;;;;10.57;100.00;102944.09;5113187;27;45518;-68
2021/12/15 08:48:24;;;;;;;;;35.67;28.00;;;;;10.57;100.00;102938.84;5113955;27;45488;-68
2021/12/15 08:50:49;;;;;;;;;29.67;25.33;;;;;10.48;100.00;102920.25;5102484;27;45797;-68
2021/12/15 08:53:16;;;;;;;;;33.00;29.00;;;;;10.55;100.00;102932.63;5093894;27;45490;-68
2021/12/15 08:55:46;;;;;;;;;28.67;27.00;;;;;10.53;100.00;102930.84;5093954;27;45561;-69
2021/12/15 08:58:13;;;;;;;;;31.00;27.00;;;;;10.59;100.00;102939.72;5093298;27;45745;-71
2021/12/15 09:00:43;;;;;;;;;30.67;27.33;;;;;10.54;100.00;102933.53;5093541;27;45772;-70
2021/12/15 09:03:10;;;;;;;;;30.33;24.33;;;;;10.39;100.00;102907.84;5093428;27;46165;-70
2021/12/15 09:05:37;;;;;;;;;27.33;23.33;;;;;10.61;100.00;102937.09;5109517;27;45818;-71
2021/12/15 09:08:03;;;;;;;;;23.33;22.67;;;;;10.63;100.00;102940.66;5113939;27;45824;-71
2021/12/15 09:10:31;;;;;;;;;27.33;22.67;;;;;10.61;100.00;102945.00;5113742;27;45532;-70
2021/12/15 09:12:58;;;;;;;;;29.33;24.00;;;;;10.62;100.00;102939.75;5114230;27;45430;-70
2021/12/15 09:15:24;;;;;;;;;47.00;38.00;;;;;10.60;100.00;102935.31;5114289;27;45406;-70
2021/12/15 09:17:51;;;;;;;;;26.33;24.00;;;;;10.57;100.00;102933.56;5113496;27;46107;-70
2021/12/15 09:20:21;;;;;;;;;33.00;28.00;;;;;10.61;100.00;102945.00;5113792;27;45543;-69
2021/12/15 09:22:47;;;;;;;;;24.33;20.33;;;;;10.50;100.00;102929.06;5113647;27;45498;-70
2021/12/15 09:25:15;;;;;;;;;30.33;26.67;;;;;10.58;100.00;102937.94;5116348;27;45775;-70
2021/12/15 09:27:42;;;;;;;;;31.67;27.33;;;;;10.66;100.00;102950.31;5117316;27;46233;-71
2021/12/15 09:30:10;;;;;;;;;22.67;20.00;;;;;10.60;100.00;102938.88;5107926;27;45573;-69
2021/12/15 09:32:37;;;;;;;;;24.00;20.00;;;;;10.69;100.00;102938.09;5090421;27;45569;-70
2021/12/15 09:47:58;;;;;;;;;24.00;23.67;;;;;10.66;100.00;102945.06;5086831;27;45884;-69
2021/12/15 10:07:16;;;;;;;;;31.00;28.00;;;;;10.88;100.00;102946.22;5069858;27;45467;-70
2021/12/15 10:17:47;;;;;;;;;25.33;22.33;;;;;10.92;100.00;102961.19;5070100;28;45793;-70
2021/12/15 10:20:23;;;;;;;;;38.33;29.67;;;;;10.93;100.00;102957.69;5069343;27;47401;-70
2021/12/15 10:22:53;;;;;;;;;31.67;28.67;;;;;10.91;100.00;102967.34;5069338;27;45552;-70
2021/12/15 10:25:29;;;;;;;;;29.33;26.00;;;;;10.95;100.00;102967.38;5069841;28;45417;-70
2021/12/15 10:28:04;;;;;;;;;27.67;23.33;;;;;11.04;100.00;102969.25;5069635;27;45443;-70
2021/12/15 10:30:40;;;;;;;;;26.00;23.67;;;;;11.06;100.00;102971.88;5069261;28;46129;-72
2021/12/15 10:33:11;;;;;;;;;30.33;25.33;;;;;11.08;100.00;102976.31;5069264;27;45498;-71
2021/12/15 10:35:56;;;;;;;;;26.33;20.00;;;;;11.09;100.00;102971.91;5069473;28;45438;-70
2021/12/15 10:38:23;;;;;;;;;32.33;25.33;;;;;11.11;99.76;102970.19;5069450;28;45492;-71
2021/12/15 10:40:57;;;;;;;;;23.67;22.00;;;;;11.07;99.31;102964.00;5069111;28;46617;-72
2021/12/15 10:43:27;;;;;;;;;35.33;32.00;;;;;11.03;99.21;102956.91;5069186;28;45469;-71
2021/12/15 10:45:57;;;;;;;;;30.00;26.67;;;;;11.09;99.58;102969.28;5069270;28;45602;-71
2021/12/15 10:48:37;;;;;;;;;32.00;25.33;;;;;11.02;99.29;102943.72;5056080;28;45503;-72
2021/12/15 10:51:17;;;;;;;;;31.67;26.67;;;;;11.11;99.07;102963.16;5055486;28;46503;-71
2021/12/15 10:53:42;;;;;;;;;26.67;20.33;;;;;11.08;99.21;102960.50;5055494;28;45562;-72
2021/12/15 10:56:13;;;;;;;;;33.67;26.33;;;;;11.13;99.38;102960.53;5055659;28;45562;-71
2021/12/15 10:58:44;;;;;;;;;37.67;28.33;;;;;11.20;99.34;102972.06;5055649;28;45482;-72
2021/12/15 11:01:34;;;;;;;;;28.67;25.67;;;;;11.23;98.98;102985.28;5055171;28;45608;-72
2021/12/15 11:04:00;;;;;;;;;31.67;27.33;;;;;11.26;99.28;102975.63;5055356;28;45507;-70
2021/12/15 11:06:33;;;;;;;;;30.00;26.00;;;;;11.19;98.90;102954.47;5055269;28;45527;-70
2021/12/15 11:09:18;;;;;;;;;28.00;24.67;;;;;11.10;98.18;102927.13;5055494;28;45427;-70
2021/12/15 11:12:01;;;;;;;;;25.33;22.67;;;;;11.37;98.28;102965.19;5055108;28;45716;-70
2021/12/15 11:14:36;;;;;;;;;30.00;25.67;;;;;11.13;97.89;102915.72;5055130;28;45368;-71
2021/12/15 11:17:29;;;;;;;;;41.00;30.33;;;;;11.18;97.96;102916.63;5055064;28;45713;-71
2021/12/15 11:20:12;;;;;;;;;29.33;23.00;;;;;11.31;97.55;102930.81;5015543;28;45464;-71
2021/12/15 11:22:57;;;;;;;;;32.67;25.67;;;;;11.35;97.58;102939.66;5032031;28;46413;-71
2021/12/15 11:25:28;;;;;;;;;29.67;25.00;;;;;11.50;97.79;102959.16;5032741;28;45545;-71
2021/12/15 11:28:17;;;;;;;;;23.33;22.33;;;;;11.45;97.51;102941.53;5036748;28;45528;-72
2021/12/15 11:31:00;;;;;;;;;23.33;20.67;;;;;11.54;97.05;102957.41;5036988;28;45436;-72
2021/12/15 11:33:30;;;;;;;;;25.67;22.00;;;;;11.48;96.29;102947.69;5036496;28;46533;-73
2021/12/15 11:36:25;;;;;;;;;23.33;19.67;;;;;11.52;96.61;102951.25;5036247;28;45346;-71
2021/12/15 11:38:58;;;;;;;;;28.00;24.67;;;;;11.34;96.11;102922.94;5036524;28;45480;-72
2021/12/15 11:41:34;;;;;;;;;25.00;21.67;;;;;11.58;96.27;102964.50;5036784;28;45526;-72
2021/12/15 11:44:14;;;;;;;;;18.33;16.67;;;;;11.50;96.42;102945.97;5035963;28;47520;-72
2021/12/15 11:46:50;;;;;;;;;29.67;22.33;;;;;11.56;96.26;102952.16;5036248;28;45524;-72
2021/12/15 11:49:23;;;;;;;;;23.00;20.00;;;;;11.61;96.37;102959.25;5036200;28;45541;-72
2021/12/15 11:51:58;;;;;;;;;27.67;22.67;;;;;11.57;95.44;102941.63;5036503;28;45569;-72
2021/12/15 11:54:29;;;;;;;;;27.33;25.33;;;;;11.61;95.63;102953.97;5036111;28;46410;-72
2021/12/15 11:56:54;;;;;;;;;28.67;25.33;;;;;11.63;95.57;102952.25;5047714;28;45384;-72
2021/12/15 11:59:20;;;;;;;;;22.33;17.00;;;;;11.64;95.65;102950.47;5057510;28;45231;-72
2021/12/15 12:01:53;;;;;;;;;31.00;25.50;;;;;11.57;95.93;102936.34;5058687;28;45721;-72
2021/12/15 12:04:33;;;;;;;;;26.33;22.33;;;;;11.64;96.00;102950.47;5058426;28;46217;-72
2021/12/15 12:07:22;;;;;;;;;27.33;25.33;;;;;11.54;96.07;102923.13;5058435;28;45570;-72
2021/12/15 12:09:53;;;;;;;;;36.33;28.67;;;;;11.68;95.38;102947.88;5058576;28;45438;-72
2021/12/15 12:12:22;;;;;;;;;35.00;30.67;;;;;11.65;96.01;102939.94;5058429;28;45457;-72
2021/12/15 12:14:51;;;;;;;;;35.67;30.00;;;;;11.60;95.54;102924.94;5057869;28;45434;-72
2021/12/15 12:17:27;;;;;;;;;63.00;51.00;;;;;11.51;95.88;102899.34;5058200;28;45475;-72
2021/12/15 12:20:13;;;;;;;;;104.25;91.50;;;;;11.78;95.16;102940.91;5058125;28;45378;-72
2021/12/15 12:22:39;;;;;;;;;65.33;51.00;;;;;11.81;94.86;102946.22;5057846;28;45561;-72
2021/12/15 12:25:10;;;;;;;;;72.00;55.25;;;;;11.81;94.98;102943.56;5057842;28;46011;-72
2021/12/15 12:27:37;;;;;;;;;70.50;56.50;;;;;11.71;94.86;102920.63;5057840;28;45364;-72
2021/12/15 12:30:11;;;;;;;;;42.33;34.67;;;;;11.79;94.92;102932.13;5057698;28;45495;-72
2021/12/15 12:32:36;;;;;;;;;41.67;34.00;;;;;11.72;95.23;102922.41;5058171;28;45441;-72
2021/12/15 12:35:05;;;;;;;;;20.00;20.00;;;;;11.73;95.27;102926.78;5057629;28;45515;-71